sensor_id;sensor_type;location;lat;lon;timestamp;P1;durP1;ratioP1;P2;durP2;ratioP2
12202;SDS011;6164;42.178;24.622;2023-04-15T00:02:00;6.63;;;3.65;;
12202;SDS011;6164;42.178;24.622;2023-04-15T00:04:29;6.53;;;3.85;;
12202;SDS011;6164;42.178;24.622;2023-04-15T00:06:57;5.15;;;3.70;;
12202;SDS011;6164;42.178;24.622;2023-04-15T00:09:25;5.88;;;3.65;;
12202;SDS011;6164;42.178;24.622;2023-04-15T00:11:52;4.32;;;3.45;;
12202;SDS011;6164;42.178;24.622;2023-04-15T00:14:19;4.82;;;3.65;;
12202;SDS011;6164;42.178;24.622;2023-04-15T00:16:46;5.40;;;3.85;;
12202;SDS011;6164;42.178;24.622;2023-04-15T00:19:19;6.90;;;3.92;;
12202;SDS011;6164;42.178;24.622;2023-04-15T00:21:45;5.28;;;3.55;;
12202;SDS011;6164;42.178;24.622;2023-04-15T00:24:12;5.57;;;3.75;;
12202;SDS011;6164;42.178;24.622;2023-04-15T00:26:40;5.20;;;3.90;;
12202;SDS011;6164;42.178;24.622;2023-04-15T00:29:07;4.10;;;3.40;;
12202;SDS011;6164;42.178;24.622;2023-04-15T00:31:34;4.20;;;3.25;;
12202;SDS011;6164;42.178;24.622;2023-04-15T00:34:00;4.68;;;3.35;;
12202;SDS011;6164;42.178;24.622;2023-04-15T00:36:27;5.22;;;3.20;;
12202;SDS011;6164;42.178;24.622;2023-04-15T00:38:54;3.80;;;2.80;;
12202;SDS011;6164;42.178;24.622;2023-04-15T00:41:21;4.53;;;3.30;;
12202;SDS011;6164;42.178;24.622;2023-04-15T00:43:49;4.85;;;2.97;;
12202;SDS011;6164;42.178;24.622;2023-04-15T00:46:16;5.50;;;2.80;;
12202;SDS011;6164;42.178;24.622;2023-04-15T00:48:46;6.40;;;3.42;;
12202;SDS011;6164;42.178;24.622;2023-04-15T00:51:13;4.03;;;3.30;;
12202;SDS011;6164;42.178;24.622;2023-04-15T00:53:40;4.60;;;3.70;;
12202;SDS011;6164;42.178;24.622;2023-04-15T00:56:10;5.97;;;4.30;;
12202;SDS011;6164;42.178;24.622;2023-04-15T00:58:37;5.32;;;4.03;;
12202;SDS011;6164;42.178;24.622;2023-04-15T01:01:05;5.95;;;4.70;;
12202;SDS011;6164;42.178;24.622;2023-04-15T01:03:32;4.85;;;3.75;;
12202;SDS011;6164;42.178;24.622;2023-04-15T01:05:59;7.25;;;4.35;;
12202;SDS011;6164;42.178;24.622;2023-04-15T01:08:26;6.07;;;4.18;;
12202;SDS011;6164;42.178;24.622;2023-04-15T01:10:53;6.22;;;3.92;;
12202;SDS011;6164;42.178;24.622;2023-04-15T01:13:22;6.05;;;3.75;;
12202;SDS011;6164;42.178;24.622;2023-04-15T01:15:49;5.20;;;3.60;;
12202;SDS011;6164;42.178;24.622;2023-04-15T01:18:18;4.55;;;3.42;;
12202;SDS011;6164;42.178;24.622;2023-04-15T01:20:46;4.22;;;3.05;;
12202;SDS011;6164;42.178;24.622;2023-04-15T01:23:12;4.18;;;2.95;;
12202;SDS011;6164;42.178;24.622;2023-04-15T01:25:40;2.80;;;2.33;;
12202;SDS011;6164;42.178;24.622;2023-04-15T01:28:09;3.88;;;2.40;;
12202;SDS011;6164;42.178;24.622;2023-04-15T01:30:36;3.83;;;2.05;;
12202;SDS011;6164;42.178;24.622;2023-04-15T01:33:02;3.70;;;2.20;;
12202;SDS011;6164;42.178;24.622;2023-04-15T01:35:29;4.28;;;2.10;;
12202;SDS011;6164;42.178;24.622;2023-04-15T01:37:56;4.60;;;3.85;;
12202;SDS011;6164;42.178;24.622;2023-04-15T01:40:29;5.57;;;4.18;;
12202;SDS011;6164;42.178;24.622;2023-04-15T01:42:57;6.28;;;4.40;;
12202;SDS011;6164;42.178;24.622;2023-04-15T01:45:24;8.40;;;4.68;;
12202;SDS011;6164;42.178;24.622;2023-04-15T01:47:51;5.13;;;4.63;;
12202;SDS011;6164;42.178;24.622;2023-04-15T01:50:18;6.82;;;4.28;;
12202;SDS011;6164;42.178;24.622;2023-04-15T01:52:45;6.00;;;4.60;;
12202;SDS011;6164;42.178;24.622;2023-04-15T01:55:12;6.32;;;4.07;;
12202;SDS011;6164;42.178;24.622;2023-04-15T01:57:40;5.40;;;3.67;;
12202;SDS011;6164;42.178;24.622;2023-04-15T02:00:08;5.32;;;3.80;;
12202;SDS011;6164;42.178;24.622;2023-04-15T02:02:36;5.65;;;3.30;;
12202;SDS011;6164;42.178;24.622;2023-04-15T02:05:03;4.97;;;3.60;;
12202;SDS011;6164;42.178;24.622;2023-04-15T02:07:30;4.95;;;3.00;;
12202;SDS011;6164;42.178;24.622;2023-04-15T02:09:57;4.70;;;2.95;;
12202;SDS011;6164;42.178;24.622;2023-04-15T02:12:24;3.88;;;2.67;;
12202;SDS011;6164;42.178;24.622;2023-04-15T02:14:51;3.92;;;3.00;;
12202;SDS011;6164;42.178;24.622;2023-04-15T02:17:19;4.53;;;3.00;;
12202;SDS011;6164;42.178;24.622;2023-04-15T02:19:46;5.07;;;3.05;;
12202;SDS011;6164;42.178;24.622;2023-04-15T02:22:13;5.18;;;3.10;;
12202;SDS011;6164;42.178;24.622;2023-04-15T02:24:42;4.57;;;2.85;;
12202;SDS011;6164;42.178;24.622;2023-04-15T02:27:14;8.00;;;2.97;;
12202;SDS011;6164;42.178;24.622;2023-04-15T02:29:41;3.22;;;2.50;;
12202;SDS011;6164;42.178;24.622;2023-04-15T02:32:08;3.40;;;2.92;;
12202;SDS011;6164;42.178;24.622;2023-04-15T02:34:37;4.28;;;2.75;;
12202;SDS011;6164;42.178;24.622;2023-04-15T02:37:08;3.22;;;2.65;;
12202;SDS011;6164;42.178;24.622;2023-04-15T02:39:35;2.92;;;2.55;;
12202;SDS011;6164;42.178;24.622;2023-04-15T02:42:02;5.30;;;3.00;;
12202;SDS011;6164;42.178;24.622;2023-04-15T02:44:29;3.85;;;3.00;;
12202;SDS011;6164;42.178;24.622;2023-04-15T02:46:56;3.42;;;2.80;;
12202;SDS011;6164;42.178;24.622;2023-04-15T02:49:23;4.45;;;3.00;;
12202;SDS011;6164;42.178;24.622;2023-04-15T02:51:52;3.70;;;2.95;;
12202;SDS011;6164;42.178;24.622;2023-04-15T02:54:19;4.63;;;2.75;;
12202;SDS011;6164;42.178;24.622;2023-04-15T02:56:47;4.20;;;3.15;;
12202;SDS011;6164;42.178;24.622;2023-04-15T02:59:15;3.33;;;2.95;;
12202;SDS011;6164;42.178;24.622;2023-04-15T03:01:41;3.85;;;3.38;;
12202;SDS011;6164;42.178;24.622;2023-04-15T03:04:08;4.07;;;3.30;;
12202;SDS011;6164;42.178;24.622;2023-04-15T03:06:35;6.93;;;3.58;;
12202;SDS011;6164;42.178;24.622;2023-04-15T03:09:03;4.15;;;3.38;;
12202;SDS011;6164;42.178;24.622;2023-04-15T03:11:30;5.53;;;3.20;;
12202;SDS011;6164;42.178;24.622;2023-04-15T03:13:57;4.45;;;3.25;;
12202;SDS011;6164;42.178;24.622;2023-04-15T03:16:24;5.70;;;3.95;;
12202;SDS011;6164;42.178;24.622;2023-04-15T03:18:51;5.10;;;2.65;;
12202;SDS011;6164;42.178;24.622;2023-04-15T03:21:18;3.70;;;2.50;;
12202;SDS011;6164;42.178;24.622;2023-04-15T03:23:45;3.00;;;2.47;;
12202;SDS011;6164;42.178;24.622;2023-04-15T03:26:23;2.90;;;2.30;;
12202;SDS011;6164;42.178;24.622;2023-04-15T03:28:52;3.75;;;2.38;;
12202;SDS011;6164;42.178;24.622;2023-04-15T03:31:18;4.40;;;2.10;;
12202;SDS011;6164;42.178;24.622;2023-04-15T03:33:45;3.38;;;2.40;;
12202;SDS011;6164;42.178;24.622;2023-04-15T03:36:12;7.53;;;2.63;;
12202;SDS011;6164;42.178;24.622;2023-04-15T03:38:39;4.78;;;2.97;;
12202;SDS011;6164;42.178;24.622;2023-04-15T03:41:06;4.93;;;2.92;;
12202;SDS011;6164;42.178;24.622;2023-04-15T03:43:34;4.43;;;3.63;;
12202;SDS011;6164;42.178;24.622;2023-04-15T03:46:01;4.72;;;3.30;;
12202;SDS011;6164;42.178;24.622;2023-04-15T03:48:28;3.67;;;3.20;;
12202;SDS011;6164;42.178;24.622;2023-04-15T03:50:55;7.28;;;3.97;;
12202;SDS011;6164;42.178;24.622;2023-04-15T03:53:21;5.68;;;3.60;;
12202;SDS011;6164;42.178;24.622;2023-04-15T03:55:48;5.22;;;3.40;;
12202;SDS011;6164;42.178;24.622;2023-04-15T03:58:15;4.80;;;3.70;;
12202;SDS011;6164;42.178;24.622;2023-04-15T04:00:43;4.88;;;3.47;;
12202;SDS011;6164;42.178;24.622;2023-04-15T04:03:10;5.18;;;2.95;;
12202;SDS011;6164;42.178;24.622;2023-04-15T04:05:36;3.22;;;2.90;;
12202;SDS011;6164;42.178;24.622;2023-04-15T04:08:05;4.28;;;3.17;;
12202;SDS011;6164;42.178;24.622;2023-04-15T04:10:32;4.18;;;2.85;;
12202;SDS011;6164;42.178;24.622;2023-04-15T04:12:59;3.80;;;2.90;;
12202;SDS011;6164;42.178;24.622;2023-04-15T04:15:25;4.03;;;3.28;;
12202;SDS011;6164;42.178;24.622;2023-04-15T04:17:53;4.07;;;3.28;;
12202;SDS011;6164;42.178;24.622;2023-04-15T04:20:20;5.15;;;3.40;;
12202;SDS011;6164;42.178;24.622;2023-04-15T04:22:47;4.97;;;4.30;;
12202;SDS011;6164;42.178;24.622;2023-04-15T04:25:13;5.25;;;3.47;;
12202;SDS011;6164;42.178;24.622;2023-04-15T04:27:40;4.38;;;3.30;;
12202;SDS011;6164;42.178;24.622;2023-04-15T04:30:07;6.13;;;4.38;;
12202;SDS011;6164;42.178;24.622;2023-04-15T04:32:34;4.28;;;3.80;;
12202;SDS011;6164;42.178;24.622;2023-04-15T04:35:02;6.43;;;3.50;;
12202;SDS011;6164;42.178;24.622;2023-04-15T04:37:30;5.35;;;3.65;;
12202;SDS011;6164;42.178;24.622;2023-04-15T04:39:56;4.45;;;2.95;;
12202;SDS011;6164;42.178;24.622;2023-04-15T04:42:23;5.93;;;2.70;;
12202;SDS011;6164;42.178;24.622;2023-04-15T04:44:50;7.18;;;3.08;;
12202;SDS011;6164;42.178;24.622;2023-04-15T04:47:16;3.38;;;2.72;;
12202;SDS011;6164;42.178;24.622;2023-04-15T04:49:43;6.07;;;3.00;;
12202;SDS011;6164;42.178;24.622;2023-04-15T04:52:11;3.88;;;3.17;;
12202;SDS011;6164;42.178;24.622;2023-04-15T04:54:38;3.50;;;3.00;;
12202;SDS011;6164;42.178;24.622;2023-04-15T04:57:05;6.30;;;2.85;;
12202;SDS011;6164;42.178;24.622;2023-04-15T04:59:32;2.90;;;2.60;;
12202;SDS011;6164;42.178;24.622;2023-04-15T05:01:59;6.18;;;2.58;;
12202;SDS011;6164;42.178;24.622;2023-04-15T05:04:26;2.90;;;2.55;;
12202;SDS011;6164;42.178;24.622;2023-04-15T05:06:52;4.60;;;2.83;;
12202;SDS011;6164;42.178;24.622;2023-04-15T05:09:21;5.50;;;2.88;;
12202;SDS011;6164;42.178;24.622;2023-04-15T05:11:47;3.28;;;2.63;;
12202;SDS011;6164;42.178;24.622;2023-04-15T05:14:14;4.32;;;2.65;;
12202;SDS011;6164;42.178;24.622;2023-04-15T05:16:41;2.88;;;2.33;;
12202;SDS011;6164;42.178;24.622;2023-04-15T05:19:08;3.22;;;2.53;;
12202;SDS011;6164;42.178;24.622;2023-04-15T05:21:35;6.63;;;3.25;;
12202;SDS011;6164;42.178;24.622;2023-04-15T05:24:02;5.88;;;3.47;;
12202;SDS011;6164;42.178;24.622;2023-04-15T05:26:31;5.68;;;3.22;;
12202;SDS011;6164;42.178;24.622;2023-04-15T05:28:57;5.72;;;4.45;;
12202;SDS011;6164;42.178;24.622;2023-04-15T05:31:24;9.80;;;6.35;;
12202;SDS011;6164;42.178;24.622;2023-04-15T05:33:51;3.88;;;2.90;;
12202;SDS011;6164;42.178;24.622;2023-04-15T05:36:17;4.32;;;3.00;;
12202;SDS011;6164;42.178;24.622;2023-04-15T05:38:45;5.03;;;3.17;;
12202;SDS011;6164;42.178;24.622;2023-04-15T05:41:11;3.20;;;2.67;;
12202;SDS011;6164;42.178;24.622;2023-04-15T05:43:41;4.88;;;3.00;;
12202;SDS011;6164;42.178;24.622;2023-04-15T05:46:07;7.00;;;3.40;;
12202;SDS011;6164;42.178;24.622;2023-04-15T05:48:34;4.03;;;3.22;;
12202;SDS011;6164;42.178;24.622;2023-04-15T05:51:01;5.75;;;3.58;;
12202;SDS011;6164;42.178;24.622;2023-04-15T05:53:28;4.45;;;3.50;;
12202;SDS011;6164;42.178;24.622;2023-04-15T05:55:54;3.67;;;2.90;;
12202;SDS011;6164;42.178;24.622;2023-04-15T05:58:22;5.47;;;2.92;;
12202;SDS011;6164;42.178;24.622;2023-04-15T06:00:50;5.18;;;3.17;;
12202;SDS011;6164;42.178;24.622;2023-04-15T06:03:16;4.97;;;3.30;;
12202;SDS011;6164;42.178;24.622;2023-04-15T06:05:43;3.83;;;2.80;;
12202;SDS011;6164;42.178;24.622;2023-04-15T06:08:10;5.45;;;3.65;;
12202;SDS011;6164;42.178;24.622;2023-04-15T06:10:37;4.75;;;3.67;;
12202;SDS011;6164;42.178;24.622;2023-04-15T06:13:04;4.85;;;3.80;;
12202;SDS011;6164;42.178;24.622;2023-04-15T06:15:31;6.18;;;4.10;;
12202;SDS011;6164;42.178;24.622;2023-04-15T06:17:59;6.82;;;3.97;;
12202;SDS011;6164;42.178;24.622;2023-04-15T06:20:26;15.57;;;11.57;;
12202;SDS011;6164;42.178;24.622;2023-04-15T06:22:52;15.95;;;10.98;;
12202;SDS011;6164;42.178;24.622;2023-04-15T06:25:19;8.85;;;7.15;;
12202;SDS011;6164;42.178;24.622;2023-04-15T06:27:46;9.88;;;5.55;;
12202;SDS011;6164;42.178;24.622;2023-04-15T06:30:13;8.95;;;5.53;;
12202;SDS011;6164;42.178;24.622;2023-04-15T06:32:40;5.55;;;4.00;;
12202;SDS011;6164;42.178;24.622;2023-04-15T06:35:08;7.07;;;4.60;;
12202;SDS011;6164;42.178;24.622;2023-04-15T06:37:35;7.55;;;4.63;;
12202;SDS011;6164;42.178;24.622;2023-04-15T06:40:02;8.27;;;5.40;;
12202;SDS011;6164;42.178;24.622;2023-04-15T06:42:30;6.15;;;4.68;;
12202;SDS011;6164;42.178;24.622;2023-04-15T06:44:56;7.28;;;5.07;;
12202;SDS011;6164;42.178;24.622;2023-04-15T06:47:23;8.57;;;5.60;;
12202;SDS011;6164;42.178;24.622;2023-04-15T06:49:50;7.35;;;5.07;;
12202;SDS011;6164;42.178;24.622;2023-04-15T06:52:18;7.75;;;5.00;;
12202;SDS011;6164;42.178;24.622;2023-04-15T06:54:45;11.00;;;6.00;;
12202;SDS011;6164;42.178;24.622;2023-04-15T06:57:11;11.18;;;5.57;;
12202;SDS011;6164;42.178;24.622;2023-04-15T06:59:38;8.82;;;5.88;;
12202;SDS011;6164;42.178;24.622;2023-04-15T07:02:05;9.20;;;5.32;;
12202;SDS011;6164;42.178;24.622;2023-04-15T07:04:37;20.92;;;6.65;;
12202;SDS011;6164;42.178;24.622;2023-04-15T07:07:05;15.02;;;6.15;;
12202;SDS011;6164;42.178;24.622;2023-04-15T07:09:34;7.55;;;5.18;;
12202;SDS011;6164;42.178;24.622;2023-04-15T07:12:02;8.38;;;4.85;;
12202;SDS011;6164;42.178;24.622;2023-04-15T07:14:29;8.52;;;5.40;;
12202;SDS011;6164;42.178;24.622;2023-04-15T07:16:56;10.23;;;5.70;;
12202;SDS011;6164;42.178;24.622;2023-04-15T07:19:23;6.78;;;4.93;;
12202;SDS011;6164;42.178;24.622;2023-04-15T07:21:50;7.38;;;5.10;;
12202;SDS011;6164;42.178;24.622;2023-04-15T07:24:16;8.30;;;4.70;;
12202;SDS011;6164;42.178;24.622;2023-04-15T07:26:46;8.00;;;5.15;;
12202;SDS011;6164;42.178;24.622;2023-04-15T07:29:12;6.90;;;4.45;;
12202;SDS011;6164;42.178;24.622;2023-04-15T07:31:39;7.43;;;4.75;;
12202;SDS011;6164;42.178;24.622;2023-04-15T07:34:12;6.75;;;4.45;;
12202;SDS011;6164;42.178;24.622;2023-04-15T07:36:38;13.15;;;4.38;;
12202;SDS011;6164;42.178;24.622;2023-04-15T07:39:05;8.27;;;4.68;;
12202;SDS011;6164;42.178;24.622;2023-04-15T07:41:32;7.88;;;4.85;;
12202;SDS011;6164;42.178;24.622;2023-04-15T07:44:00;7.10;;;4.93;;
12202;SDS011;6164;42.178;24.622;2023-04-15T07:46:27;6.57;;;4.97;;
12202;SDS011;6164;42.178;24.622;2023-04-15T07:48:54;7.72;;;4.88;;
12202;SDS011;6164;42.178;24.622;2023-04-15T07:51:20;10.20;;;5.63;;
12202;SDS011;6164;42.178;24.622;2023-04-15T07:53:48;10.82;;;4.90;;
12202;SDS011;6164;42.178;24.622;2023-04-15T07:56:15;6.78;;;5.00;;
12202;SDS011;6164;42.178;24.622;2023-04-15T07:58:41;7.63;;;4.88;;
12202;SDS011;6164;42.178;24.622;2023-04-15T08:01:10;6.97;;;5.05;;
12202;SDS011;6164;42.178;24.622;2023-04-15T08:03:36;9.35;;;5.70;;
12202;SDS011;6164;42.178;24.622;2023-04-15T08:06:04;7.60;;;4.78;;
12202;SDS011;6164;42.178;24.622;2023-04-15T08:08:30;7.38;;;5.13;;
12202;SDS011;6164;42.178;24.622;2023-04-15T08:10:57;8.52;;;5.13;;
12202;SDS011;6164;42.178;24.622;2023-04-15T08:13:24;6.32;;;4.60;;
12202;SDS011;6164;42.178;24.622;2023-04-15T08:15:52;7.03;;;4.40;;
12202;SDS011;6164;42.178;24.622;2023-04-15T08:18:41;9.40;;;4.65;;
12202;SDS011;6164;42.178;24.622;2023-04-15T08:21:08;7.60;;;4.30;;
12202;SDS011;6164;42.178;24.622;2023-04-15T08:23:35;6.40;;;4.05;;
12202;SDS011;6164;42.178;24.622;2023-04-15T08:26:03;6.63;;;3.90;;
12202;SDS011;6164;42.178;24.622;2023-04-15T08:28:29;9.45;;;4.25;;
12202;SDS011;6164;42.178;24.622;2023-04-15T08:30:56;7.10;;;4.45;;
12202;SDS011;6164;42.178;24.622;2023-04-15T08:33:24;8.25;;;3.88;;
12202;SDS011;6164;42.178;24.622;2023-04-15T08:35:51;7.53;;;3.85;;
12202;SDS011;6164;42.178;24.622;2023-04-15T08:38:18;7.43;;;3.13;;
12202;SDS011;6164;42.178;24.622;2023-04-15T08:40:45;9.40;;;4.20;;
12202;SDS011;6164;42.178;24.622;2023-04-15T08:43:12;9.23;;;4.85;;
12202;SDS011;6164;42.178;24.622;2023-04-15T08:45:43;6.72;;;3.90;;
12202;SDS011;6164;42.178;24.622;2023-04-15T08:48:13;5.93;;;3.05;;
12202;SDS011;6164;42.178;24.622;2023-04-15T08:50:43;5.35;;;3.47;;
12202;SDS011;6164;42.178;24.622;2023-04-15T08:53:10;9.02;;;3.10;;
12202;SDS011;6164;42.178;24.622;2023-04-15T08:55:38;3.75;;;2.30;;
12202;SDS011;6164;42.178;24.622;2023-04-15T08:58:09;4.35;;;2.60;;
12202;SDS011;6164;42.178;24.622;2023-04-15T09:00:37;4.80;;;2.50;;
12202;SDS011;6164;42.178;24.622;2023-04-15T09:03:04;3.47;;;2.72;;
12202;SDS011;6164;42.178;24.622;2023-04-15T09:05:31;4.63;;;2.50;;
12202;SDS011;6164;42.178;24.622;2023-04-15T09:08:00;5.78;;;3.55;;
12202;SDS011;6164;42.178;24.622;2023-04-15T09:10:27;7.38;;;3.30;;
12202;SDS011;6164;42.178;24.622;2023-04-15T09:12:55;6.63;;;3.85;;
12202;SDS011;6164;42.178;24.622;2023-04-15T09:15:22;6.18;;;3.92;;
12202;SDS011;6164;42.178;24.622;2023-04-15T09:17:51;6.35;;;3.47;;
12202;SDS011;6164;42.178;24.622;2023-04-15T09:20:18;8.73;;;4.35;;
12202;SDS011;6164;42.178;24.622;2023-04-15T09:22:46;10.10;;;3.83;;
12202;SDS011;6164;42.178;24.622;2023-04-15T09:25:30;7.18;;;3.92;;
12202;SDS011;6164;42.178;24.622;2023-04-15T09:27:58;6.53;;;3.67;;
12202;SDS011;6164;42.178;24.622;2023-04-15T09:30:26;6.03;;;3.42;;
12202;SDS011;6164;42.178;24.622;2023-04-15T09:32:54;7.53;;;3.50;;
12202;SDS011;6164;42.178;24.622;2023-04-15T09:35:23;6.30;;;3.40;;
12202;SDS011;6164;42.178;24.622;2023-04-15T09:37:51;6.57;;;3.08;;
12202;SDS011;6164;42.178;24.622;2023-04-15T09:40:31;6.75;;;3.30;;
12202;SDS011;6164;42.178;24.622;2023-04-15T09:42:58;6.30;;;3.60;;
12202;SDS011;6164;42.178;24.622;2023-04-15T09:45:26;4.32;;;3.10;;
12202;SDS011;6164;42.178;24.622;2023-04-15T09:47:53;5.93;;;3.35;;
12202;SDS011;6164;42.178;24.622;2023-04-15T09:50:20;15.23;;;11.40;;
12202;SDS011;6164;42.178;24.622;2023-04-15T09:52:46;10.65;;;8.50;;
12202;SDS011;6164;42.178;24.622;2023-04-15T09:55:13;7.03;;;3.60;;
12202;SDS011;6164;42.178;24.622;2023-04-15T09:57:44;4.32;;;2.42;;
12202;SDS011;6164;42.178;24.622;2023-04-15T10:00:12;7.88;;;3.50;;
12202;SDS011;6164;42.178;24.622;2023-04-15T10:02:40;6.70;;;3.00;;
12202;SDS011;6164;42.178;24.622;2023-04-15T10:05:08;6.28;;;3.08;;
12202;SDS011;6164;42.178;24.622;2023-04-15T10:07:36;6.55;;;2.35;;
12202;SDS011;6164;42.178;24.622;2023-04-15T10:10:05;4.03;;;2.28;;
12202;SDS011;6164;42.178;24.622;2023-04-15T10:12:33;3.45;;;2.20;;
12202;SDS011;6164;42.178;24.622;2023-04-15T10:15:05;6.57;;;2.60;;
12202;SDS011;6164;42.178;24.622;2023-04-15T10:17:36;5.45;;;2.25;;
12202;SDS011;6164;42.178;24.622;2023-04-15T10:20:07;4.07;;;2.03;;
12202;SDS011;6164;42.178;24.622;2023-04-15T10:22:36;4.72;;;2.38;;
12202;SDS011;6164;42.178;24.622;2023-04-15T10:25:03;5.80;;;2.35;;
12202;SDS011;6164;42.178;24.622;2023-04-15T10:27:31;3.38;;;1.92;;
12202;SDS011;6164;42.178;24.622;2023-04-15T10:29:59;4.82;;;2.05;;
12202;SDS011;6164;42.178;24.622;2023-04-15T10:32:28;4.75;;;1.98;;
12202;SDS011;6164;42.178;24.622;2023-04-15T10:34:55;5.18;;;2.50;;
12202;SDS011;6164;42.178;24.622;2023-04-15T10:37:32;5.22;;;2.40;;
12202;SDS011;6164;42.178;24.622;2023-04-15T10:40:07;4.80;;;2.50;;
12202;SDS011;6164;42.178;24.622;2023-04-15T10:42:49;3.22;;;2.08;;
12202;SDS011;6164;42.178;24.622;2023-04-15T10:45:16;4.63;;;2.30;;
12202;SDS011;6164;42.178;24.622;2023-04-15T10:47:45;3.28;;;1.83;;
12202;SDS011;6164;42.178;24.622;2023-04-15T10:50:17;2.97;;;2.05;;
12202;SDS011;6164;42.178;24.622;2023-04-15T10:52:44;4.10;;;2.15;;
12202;SDS011;6164;42.178;24.622;2023-04-15T10:55:12;7.05;;;2.00;;
12202;SDS011;6164;42.178;24.622;2023-04-15T10:57:40;4.68;;;2.00;;
12202;SDS011;6164;42.178;24.622;2023-04-15T11:00:09;4.03;;;2.10;;
12202;SDS011;6164;42.178;24.622;2023-04-15T11:02:41;2.92;;;2.03;;
12202;SDS011;6164;42.178;24.622;2023-04-15T11:05:11;3.22;;;2.00;;
12202;SDS011;6164;42.178;24.622;2023-04-15T11:07:39;3.35;;;1.77;;
12202;SDS011;6164;42.178;24.622;2023-04-15T11:13:19;2.60;;;1.70;;
12202;SDS011;6164;42.178;24.622;2023-04-15T11:15:47;3.33;;;1.75;;
12202;SDS011;6164;42.178;24.622;2023-04-15T11:18:16;7.18;;;2.20;;
12202;SDS011;6164;42.178;24.622;2023-04-15T11:20:46;5.25;;;2.28;;
12202;SDS011;6164;42.178;24.622;2023-04-15T11:23:16;6.47;;;2.60;;
12202;SDS011;6164;42.178;24.622;2023-04-15T11:25:43;7.32;;;3.67;;
12202;SDS011;6164;42.178;24.622;2023-04-15T11:28:10;6.93;;;3.60;;
12202;SDS011;6164;42.178;24.622;2023-04-15T11:30:38;6.53;;;3.50;;
12202;SDS011;6164;42.178;24.622;2023-04-15T11:33:06;8.00;;;3.90;;
12202;SDS011;6164;42.178;24.622;2023-04-15T11:35:34;10.18;;;4.10;;
12202;SDS011;6164;42.178;24.622;2023-04-15T11:38:03;5.57;;;3.60;;
12202;SDS011;6164;42.178;24.622;2023-04-15T11:40:30;9.93;;;4.53;;
12202;SDS011;6164;42.178;24.622;2023-04-15T11:43:03;9.77;;;4.22;;
12202;SDS011;6164;42.178;24.622;2023-04-15T11:45:30;7.63;;;3.92;;
12202;SDS011;6164;42.178;24.622;2023-04-15T11:48:04;5.30;;;3.63;;
12202;SDS011;6164;42.178;24.622;2023-04-15T11:50:31;8.18;;;4.65;;
12202;SDS011;6164;42.178;24.622;2023-04-15T11:52:59;9.50;;;4.53;;
12202;SDS011;6164;42.178;24.622;2023-04-15T11:55:29;6.63;;;4.35;;
12202;SDS011;6164;42.178;24.622;2023-04-15T11:58:07;6.80;;;4.00;;
12202;SDS011;6164;42.178;24.622;2023-04-15T12:00:35;4.45;;;3.92;;
12202;SDS011;6164;42.178;24.622;2023-04-15T12:03:10;7.28;;;4.00;;
12202;SDS011;6164;42.178;24.622;2023-04-15T12:08:56;5.07;;;3.28;;
12202;SDS011;6164;42.178;24.622;2023-04-15T12:14:20;5.25;;;3.03;;
12202;SDS011;6164;42.178;24.622;2023-04-15T12:16:49;3.58;;;3.03;;
12202;SDS011;6164;42.178;24.622;2023-04-15T12:19:22;5.10;;;3.33;;
12202;SDS011;6164;42.178;24.622;2023-04-15T12:21:52;5.95;;;3.65;;
12202;SDS011;6164;42.178;24.622;2023-04-15T12:24:22;8.20;;;3.70;;
12202;SDS011;6164;42.178;24.622;2023-04-15T12:26:51;6.55;;;4.00;;
12202;SDS011;6164;42.178;24.622;2023-04-15T12:29:23;4.68;;;3.75;;
12202;SDS011;6164;42.178;24.622;2023-04-15T12:31:53;5.25;;;3.40;;
12202;SDS011;6164;42.178;24.622;2023-04-15T12:34:27;4.97;;;3.10;;
12202;SDS011;6164;42.178;24.622;2023-04-15T12:36:55;6.50;;;3.53;;
12202;SDS011;6164;42.178;24.622;2023-04-15T12:39:23;4.70;;;3.25;;
12202;SDS011;6164;42.178;24.622;2023-04-15T12:41:52;5.57;;;2.97;;
12202;SDS011;6164;42.178;24.622;2023-04-15T12:44:20;6.78;;;3.70;;
12202;SDS011;6164;42.178;24.622;2023-04-15T12:46:48;3.95;;;2.90;;
12202;SDS011;6164;42.178;24.622;2023-04-15T12:49:16;4.00;;;2.60;;
12202;SDS011;6164;42.178;24.622;2023-04-15T12:51:44;3.47;;;2.50;;
12202;SDS011;6164;42.178;24.622;2023-04-15T12:54:12;7.28;;;2.50;;
12202;SDS011;6164;42.178;24.622;2023-04-15T12:56:39;4.30;;;2.30;;
12202;SDS011;6164;42.178;24.622;2023-04-15T12:59:07;5.18;;;2.63;;
12202;SDS011;6164;42.178;24.622;2023-04-15T13:01:34;6.20;;;2.38;;
12202;SDS011;6164;42.178;24.622;2023-04-15T13:04:00;4.60;;;2.13;;
12202;SDS011;6164;42.178;24.622;2023-04-15T13:06:27;3.88;;;2.13;;
12202;SDS011;6164;42.178;24.622;2023-04-15T13:08:54;2.58;;;1.67;;
12202;SDS011;6164;42.178;24.622;2023-04-15T13:11:21;6.38;;;1.90;;
12202;SDS011;6164;42.178;24.622;2023-04-15T13:13:48;5.88;;;1.80;;
12202;SDS011;6164;42.178;24.622;2023-04-15T13:16:17;3.75;;;1.80;;
12202;SDS011;6164;42.178;24.622;2023-04-15T13:18:44;6.15;;;1.90;;
12202;SDS011;6164;42.178;24.622;2023-04-15T13:21:11;7.63;;;2.13;;
12202;SDS011;6164;42.178;24.622;2023-04-15T13:23:39;7.72;;;1.90;;
12202;SDS011;6164;42.178;24.622;2023-04-15T13:26:06;4.60;;;2.03;;
12202;SDS011;6164;42.178;24.622;2023-04-15T13:28:33;3.80;;;1.60;;
12202;SDS011;6164;42.178;24.622;2023-04-15T13:31:00;3.90;;;1.75;;
12202;SDS011;6164;42.178;24.622;2023-04-15T13:33:28;4.80;;;1.85;;
12202;SDS011;6164;42.178;24.622;2023-04-15T13:35:56;3.03;;;1.73;;
12202;SDS011;6164;42.178;24.622;2023-04-15T13:38:23;3.83;;;1.90;;
12202;SDS011;6164;42.178;24.622;2023-04-15T13:40:50;4.43;;;1.80;;
12202;SDS011;6164;42.178;24.622;2023-04-15T13:43:17;7.00;;;1.98;;
12202;SDS011;6164;42.178;24.622;2023-04-15T13:45:45;4.63;;;1.92;;
12202;SDS011;6164;42.178;24.622;2023-04-15T13:48:12;5.18;;;2.20;;
12202;SDS011;6164;42.178;24.622;2023-04-15T13:50:40;6.18;;;2.00;;
12202;SDS011;6164;42.178;24.622;2023-04-15T13:53:09;3.38;;;2.20;;
12202;SDS011;6164;42.178;24.622;2023-04-15T13:55:36;6.38;;;2.28;;
12202;SDS011;6164;42.178;24.622;2023-04-15T13:58:05;2.22;;;1.45;;
12202;SDS011;6164;42.178;24.622;2023-04-15T14:00:32;2.55;;;1.58;;
12202;SDS011;6164;42.178;24.622;2023-04-15T14:02:59;4.22;;;1.92;;
12202;SDS011;6164;42.178;24.622;2023-04-15T14:05:28;4.05;;;1.90;;
12202;SDS011;6164;42.178;24.622;2023-04-15T14:07:56;3.22;;;1.63;;
12202;SDS011;6164;42.178;24.622;2023-04-15T14:10:24;5.18;;;1.90;;
12202;SDS011;6164;42.178;24.622;2023-04-15T14:12:51;3.60;;;1.67;;
12202;SDS011;6164;42.178;24.622;2023-04-15T14:15:17;5.80;;;1.60;;
12202;SDS011;6164;42.178;24.622;2023-04-15T14:17:44;4.40;;;1.85;;
12202;SDS011;6164;42.178;24.622;2023-04-15T14:20:11;4.00;;;1.80;;
12202;SDS011;6164;42.178;24.622;2023-04-15T14:22:38;4.32;;;1.60;;
12202;SDS011;6164;42.178;24.622;2023-04-15T14:25:08;2.80;;;1.60;;
12202;SDS011;6164;42.178;24.622;2023-04-15T14:27:35;2.60;;;1.77;;
12202;SDS011;6164;42.178;24.622;2023-04-15T14:30:02;2.03;;;1.40;;
12202;SDS011;6164;42.178;24.622;2023-04-15T14:32:29;2.97;;;1.67;;
12202;SDS011;6164;42.178;24.622;2023-04-15T14:34:56;3.85;;;2.03;;
12202;SDS011;6164;42.178;24.622;2023-04-15T14:37:23;5.28;;;1.83;;
12202;SDS011;6164;42.178;24.622;2023-04-15T14:39:50;4.63;;;1.90;;
12202;SDS011;6164;42.178;24.622;2023-04-15T14:42:18;3.00;;;1.88;;
12202;SDS011;6164;42.178;24.622;2023-04-15T14:44:45;5.32;;;1.70;;
12202;SDS011;6164;42.178;24.622;2023-04-15T14:47:11;4.38;;;1.90;;
12202;SDS011;6164;42.178;24.622;2023-04-15T14:49:38;4.00;;;1.95;;
12202;SDS011;6164;42.178;24.622;2023-04-15T14:52:05;2.70;;;1.80;;
12202;SDS011;6164;42.178;24.622;2023-04-15T14:54:32;7.13;;;2.10;;
12202;SDS011;6164;42.178;24.622;2023-04-15T14:56:58;4.10;;;1.90;;
12202;SDS011;6164;42.178;24.622;2023-04-15T14:59:27;8.75;;;2.13;;
12202;SDS011;6164;42.178;24.622;2023-04-15T15:01:53;8.45;;;2.10;;